Time;durP1;ratioP1;P1;durP2;ratioP2;P2;SDS_P1;SDS_P2;PMS_P1;PMS_P2;Temp;Humidity;BMP_temperature;BMP_pressure;BME280_temperature;BME280_humidity;BME280_pressure;Samples;Min_cycle;Max_cycle;Signal;HPM_P1;HPM_P2
2022/04/04 00:02:14;;;;;;;6.53;3.25;;;4.00;99.90;;;;;;6251106;22;20027;-91
2022/04/04 00:04:40;;;;;;;7.43;3.10;;;4.00;99.90;;;;;;6276598;22;20016;-93
2022/04/04 00:07:06;;;;;;;6.63;2.97;;;4.00;99.90;;;;;;6278277;22;20020;-92
2022/04/04 00:09:32;;;;;;;7.50;3.10;;;4.00;99.90;;;;;;6251302;22;20020;-90
2022/04/04 00:11:57;;;;;;;8.95;3.10;;;4.00;99.90;;;;;;6276397;22;20015;-93
2022/04/04 00:14:24;;;;;;;7.23;3.30;;;4.00;99.90;;;;;;6251193;22;20023;-94
2022/04/04 00:16:50;;;;;;;6.93;3.25;;;3.90;99.90;;;;;;6251014;22;20023;-90
2022/04/04 00:19:16;;;;;;;8.27;3.33;;;4.00;99.90;;;;;;6225648;22;20011;-90
2022/04/04 00:21:42;;;;;;;7.40;3.37;;;4.00;99.90;;;;;;6250870;22;20085;-89
2022/04/04 00:24:08;;;;;;;9.33;3.10;;;4.00;99.90;;;;;;6250935;22;20012;-91
2022/04/04 00:26:34;;;;;;;7.90;3.53;;;4.00;99.90;;;;;;6250923;22;20018;-91
2022/04/04 00:29:00;;;;;;;6.20;2.95;;;4.00;99.90;;;;;;6277793;22;20066;-91
2022/04/04 00:31:26;;;;;;;6.50;3.23;;;4.00;99.90;;;;;;6250726;22;20012;-89
2022/04/04 00:33:52;;;;;;;6.90;2.80;;;4.00;99.90;;;;;;6251135;22;22013;-91
2022/04/04 00:36:17;;;;;;;5.85;2.90;;;4.00;99.90;;;;;;6251349;22;20026;-88
2022/04/04 00:38:43;;;;;;;8.57;3.07;;;4.00;99.90;;;;;;6251015;22;20016;-89
2022/04/04 00:41:10;;;;;;;7.20;2.80;;;4.00;99.90;;;;;;6278029;22;20069;-96
2022/04/04 00:43:37;;;;;;;5.97;2.97;;;4.00;99.90;;;;;;6247290;22;20023;-93
2022/04/04 00:46:03;;;;;;;5.60;2.70;;;4.00;99.90;;;;;;6245643;22;20024;-93
2022/04/04 00:48:29;;;;;;;5.55;2.90;;;4.00;99.90;;;;;;6249716;23;20098;-93
2022/04/04 00:50:55;;;;;;;7.53;3.23;;;4.00;99.90;;;;;;6222734;23;20509;-91
2022/04/04 00:53:21;;;;;;;7.07;3.42;;;4.00;99.90;;;;;;6220185;23;20275;-92
2022/04/04 00:55:47;;;;;;;7.15;3.28;;;4.00;99.90;;;;;;6245242;23;20016;-91
2022/04/04 00:58:14;;;;;;;6.07;3.10;;;4.00;99.90;;;;;;6220654;23;20038;-90
2022/04/04 01:05:50;;;;;;;6.93;3.15;;;4.00;99.90;;;;;;6246541;22;20032;-91
2022/04/04 01:08:17;;;;;;;7.47;3.55;;;4.00;99.90;;;;;;6195468;23;20388;-90
2022/04/04 01:10:43;;;;;;;7.57;4.18;;;4.00;99.90;;;;;;6246146;23;20472;-91
2022/04/04 01:13:13;;;;;;;9.23;3.90;;;4.00;99.90;;;;;;6196338;23;20031;-93
2022/04/04 01:15:39;;;;;;;7.93;4.25;;;4.00;99.90;;;;;;6195296;23;20020;-91
2022/04/04 01:18:20;;;;;;;7.65;4.57;;;4.00;99.90;;;;;;6220832;23;20012;-89
2022/04/04 01:20:46;;;;;;;9.30;4.53;;;4.00;99.90;;;;;;6195129;23;20016;-88
2022/04/04 01:23:13;;;;;;;9.88;4.75;;;4.00;99.90;;;;;;6194987;23;20507;-89
2022/04/04 01:25:39;;;;;;;9.63;4.95;;;4.00;99.90;;;;;;6194963;23;20016;-89
2022/04/04 01:28:05;;;;;;;10.00;5.35;;;4.00;99.90;;;;;;6195241;23;20099;-92
2022/04/04 01:30:32;;;;;;;9.57;5.53;;;4.10;99.90;;;;;;6195504;23;20012;-90
2022/04/04 01:32:59;;;;;;;9.38;5.47;;;4.10;99.90;;;;;;6197338;23;20016;-92
2022/04/04 01:35:24;;;;;;;9.50;6.18;;;4.10;99.90;;;;;;6199062;23;20094;-94
2022/04/04 01:37:50;;;;;;;11.90;6.65;;;4.20;99.90;;;;;;6198409;23;20020;-94
2022/04/04 01:40:16;;;;;;;10.03;6.47;;;4.20;99.90;;;;;;6196868;23;20020;-94
2022/04/04 01:42:46;;;;;;;10.87;6.30;;;4.20;99.90;;;;;;6195707;23;20008;-92
2022/04/04 01:45:12;;;;;;;10.63;7.13;;;4.20;99.90;;;;;;6195796;23;20472;-93
2022/04/04 01:47:39;;;;;;;10.40;7.28;;;4.20;99.90;;;;;;6196494;23;20009;-93
2022/04/04 01:50:04;;;;;;;;;;;4.20;99.90;;;;;;6221255;23;20020;-93
2022/04/04 01:52:30;;;;;;;15.27;7.60;;;4.20;99.90;;;;;;6196125;23;19916;-93
2022/04/04 01:54:56;;;;;;;13.43;8.77;;;4.20;99.90;;;;;;6197034;23;20064;-91
2022/04/04 01:57:22;;;;;;;13.85;8.50;;;4.20;99.90;;;;;;6194681;23;20023;-92
2022/04/04 01:59:48;;;;;;;15.98;9.15;;;4.30;99.90;;;;;;6194717;23;20012;-91
2022/04/04 02:02:13;;;;;;;16.83;9.75;;;4.30;99.90;;;;;;6194851;23;20023;-92
2022/04/04 02:04:39;;;;;;;16.02;9.57;;;4.30;99.90;;;;;;6200930;23;20073;-92
2022/04/04 02:07:07;;;;;;;16.67;10.40;;;4.30;99.90;;;;;;6220967;23;20058;-93
2022/04/04 02:09:34;;;;;;;17.35;10.30;;;4.30;99.90;;;;;;6222703;23;20377;-92
2022/04/04 02:12:00;;;;;;;18.85;11.45;;;4.40;99.90;;;;;;6247872;22;20028;-93
2022/04/04 02:14:26;;;;;;;20.02;12.55;;;4.40;99.90;;;;;;6223858;23;20022;-95
2022/04/04 02:16:52;;;;;;;17.97;12.13;;;4.40;99.90;;;;;;6226056;23;20022;-93
2022/04/04 02:19:18;;;;;;;17.05;12.27;;;4.40;99.90;;;;;;6226866;23;20275;-92
2022/04/04 02:21:44;;;;;;;18.23;11.73;;;4.40;99.90;;;;;;6228214;23;20016;-92
2022/04/04 02:24:11;;;;;;;17.98;11.38;;;4.50;99.90;;;;;;6225059;23;20023;-91
2022/04/04 02:26:37;;;;;;;18.05;11.90;;;4.50;99.90;;;;;;6224191;23;20381;-91
2022/04/04 02:29:03;;;;;;;18.35;11.85;;;4.50;99.90;;;;;;6227372;23;20016;-96
2022/04/04 02:31:29;;;;;;;18.10;12.00;;;4.50;99.90;;;;;;6224972;23;20082;-95
2022/04/04 02:33:54;;;;;;;18.40;12.60;;;4.50;99.90;;;;;;6222074;23;20012;-93
2022/04/04 02:36:21;;;;;;;16.48;11.13;;;4.50;99.90;;;;;;6247444;22;20019;-91
2022/04/04 02:38:46;;;;;;;16.73;11.85;;;4.50;99.90;;;;;;6223910;23;20012;-92
2022/04/04 02:41:13;;;;;;;17.20;11.95;;;4.50;99.90;;;;;;6224966;23;20023;-92
2022/04/04 02:43:39;;;;;;;21.27;13.07;;;4.50;99.90;;;;;;6223114;23;20008;-93
2022/04/04 02:46:06;;;;;;;18.33;11.95;;;4.50;99.90;;;;;;6225737;23;20063;-94
2022/04/04 02:48:32;;;;;;;18.15;12.25;;;4.50;99.90;;;;;;6248708;22;20012;-92
2022/04/04 02:50:58;;;;;;;18.70;12.77;;;4.50;99.90;;;;;;6221640;23;20016;-92
2022/04/04 02:53:23;;;;;;;17.30;11.68;;;4.50;99.90;;;;;;6221266;23;20401;-92
2022/04/04 02:58:33;;;;;;;19.23;13.43;;;4.50;99.90;;;;;;6246875;22;20027;-94
2022/04/04 03:00:59;;;;;;;17.15;11.68;;;4.60;99.90;;;;;;6226763;23;20016;-94
2022/04/04 03:03:25;;;;;;;19.60;13.47;;;4.50;99.90;;;;;;6234254;23;20023;-95
2022/04/04 03:05:50;;;;;;;17.73;12.67;;;4.60;99.90;;;;;;6233225;23;20040;-89
2022/04/04 03:08:26;;;;;;;18.25;13.00;;;4.60;99.90;;;;;;6232621;23;20027;-90
2022/04/04 03:10:52;;;;;;;18.73;13.02;;;4.60;99.90;;;;;;6230872;23;20016;-91
2022/04/04 03:13:18;;;;;;;23.27;15.95;;;4.70;99.90;;;;;;6224083;23;20023;-92
2022/04/04 03:15:44;;;;;;;18.37;13.27;;;4.70;99.90;;;;;;6222385;23;20016;-91
2022/04/04 03:18:10;;;;;;;20.20;13.70;;;4.70;99.90;;;;;;6221674;23;20351;-91
2022/04/04 03:20:36;;;;;;;21.10;13.50;;;4.70;99.90;;;;;;6222123;23;20020;-91
2022/04/04 03:23:02;;;;;;;20.17;13.75;;;4.70;99.90;;;;;;6222797;23;20016;-92
2022/04/04 03:25:31;;;;;;;20.73;13.88;;;4.70;99.90;;;;;;6223576;23;20016;-90
2022/04/04 03:27:57;;;;;;;22.45;13.48;;;4.70;99.90;;;;;;6222925;23;20016;-89
2022/04/04 03:30:26;;;;;;;20.70;13.98;;;4.80;99.90;;;;;;6221417;23;20016;-90
2022/04/04 03:32:55;;;;;;;22.25;14.15;;;4.80;99.90;;;;;;6221268;23;20027;-88
2022/04/04 03:35:22;;;;;;;21.02;13.45;;;4.80;99.90;;;;;;6221093;23;20023;-88
2022/04/04 03:37:50;;;;;;;26.10;13.73;;;4.80;99.90;;;;;;6221566;23;20023;-89
2022/04/04 03:40:19;;;;;;;21.23;14.70;;;4.80;99.90;;;;;;6222791;23;20094;-94
2022/04/04 03:42:46;;;;;;;24.13;14.00;;;4.80;99.90;;;;;;6223563;23;20058;-92
2022/04/04 03:45:12;;;;;;;;;;;4.80;99.90;;;;;;6248344;22;20019;-91
2022/04/04 03:47:42;;;;;;;21.98;13.48;;;4.80;99.90;;;;;;6223988;23;19916;-91
2022/04/04 03:50:12;;;;;;;27.23;15.07;;;4.80;99.90;;;;;;6227894;23;20015;-90
2022/04/04 03:52:39;;;;;;;22.40;14.32;;;4.80;99.90;;;;;;6224753;23;20027;-89
2022/04/04 03:55:07;;;;;;;20.05;14.55;;;4.90;99.90;;;;;;6224518;23;20016;-89
2022/04/04 03:57:33;;;;;;;25.33;15.30;;;4.80;99.90;;;;;;6250570;22;20501;-89
2022/04/04 03:59:59;;;;;;;22.65;14.55;;;4.80;99.90;;;;;;6250655;22;20114;-89
2022/04/04 04:02:25;;;;;;;22.90;15.10;;;4.80;99.90;;;;;;6228820;23;20016;-93
2022/04/04 04:04:51;;;;;;;23.55;15.55;;;4.80;99.90;;;;;;6229922;23;20075;-90
2022/04/04 04:07:18;;;;;;;25.80;16.33;;;4.80;99.90;;;;;;6225343;23;20020;-89
2022/04/04 04:09:45;;;;;;;26.75;15.68;;;4.80;99.90;;;;;;6255615;22;20016;-91
2022/04/04 04:12:11;;;;;;;28.25;16.58;;;4.80;99.90;;;;;;6227019;23;20020;-92
2022/04/04 04:14:40;;;;;;;24.77;16.73;;;4.80;99.90;;;;;;6247763;22;20104;-89
2022/04/04 04:17:06;;;;;;;27.75;15.57;;;4.80;99.90;;;;;;6246917;22;20027;-92
2022/04/04 04:22:17;;;;;;;26.08;16.98;;;4.80;99.90;;;;;;6246331;22;20054;-91
2022/04/04 04:24:43;;;;;;;28.38;18.20;;;4.80;99.90;;;;;;6221412;23;20020;-90
2022/04/04 04:27:09;;;;;;;29.60;16.52;;;4.80;99.90;;;;;;6221795;23;20016;-90
2022/04/04 04:29:34;;;;;;;27.30;17.87;;;4.80;99.90;;;;;;6220341;23;20110;-88
2022/04/04 04:32:00;;;;;;;29.90;17.93;;;4.80;99.90;;;;;;6220225;23;20012;-89
2022/04/04 04:34:26;;;;;;;27.35;18.85;;;4.80;99.90;;;;;;6220447;23;20024;-92
2022/04/04 04:36:52;;;;;;;29.50;18.27;;;4.80;99.90;;;;;;6222251;23;20012;-93
2022/04/04 04:39:18;;;;;;;33.87;19.97;;;4.80;99.90;;;;;;6223210;23;20279;-89
2022/04/04 04:41:47;;;;;;;28.93;19.37;;;4.80;99.90;;;;;;6226095;23;20012;-89
2022/04/04 04:44:13;;;;;;;32.80;20.80;;;4.80;99.90;;;;;;6253038;22;20027;-89
2022/04/04 04:46:38;;;;;;;30.70;19.30;;;4.80;99.90;;;;;;6258367;22;20012;-89
2022/04/04 04:49:04;;;;;;;34.38;21.00;;;4.80;99.90;;;;;;6254688;22;20103;-88
2022/04/04 04:51:30;;;;;;;31.43;20.13;;;4.80;99.90;;;;;;6277388;22;20012;-89
2022/04/04 04:53:56;;;;;;;27.63;19.27;;;4.80;99.90;;;;;;6254407;22;20054;-88
2022/04/04 04:56:25;;;;;;;30.67;19.30;;;4.80;99.90;;;;;;6250736;22;20016;-90
2022/04/04 04:58:52;;;;;;;30.42;19.40;;;4.90;99.90;;;;;;6223547;23;20044;-89
2022/04/04 05:01:18;;;;;;;29.02;18.90;;;4.90;99.90;;;;;;6224787;23;20449;-90
2022/04/04 05:03:43;;;;;;;28.53;18.07;;;4.90;99.90;;;;;;6220244;23;20043;-84
2022/04/04 05:06:09;;;;;;;27.47;17.70;;;4.90;99.90;;;;;;6273310;22;20020;-85
2022/04/04 05:08:36;;;;;;;27.00;18.43;;;4.90;99.90;;;;;;6246555;23;20349;-85
2022/04/04 05:11:02;;;;;;;25.90;17.20;;;4.90;99.90;;;;;;6225555;23;20055;-86
2022/04/04 05:13:28;;;;;;;26.83;15.90;;;4.90;99.90;;;;;;6225747;23;20020;-92
2022/04/04 05:15:56;;;;;;;26.60;16.37;;;4.90;99.90;;;;;;6220981;23;20016;-89
2022/04/04 05:18:22;;;;;;;26.52;16.17;;;4.90;99.90;;;;;;6224406;23;20035;-88
2022/04/04 05:20:51;;;;;;;21.45;14.57;;;5.00;99.90;;;;;;6273737;22;20091;-86
2022/04/04 05:23:51;;;;;;;27.23;15.85;;;4.90;99.90;;;;;;6247980;22;20047;-92
2022/04/04 05:26:41;;;;;;;22.95;13.48;;;4.90;99.90;;;;;;6219898;23;20337;-89
2022/04/04 06:25:00;;;;;;;10.82;4.55;;;4.70;99.90;;;;;;6275267;22;20027;-88
2022/04/04 06:27:53;;;;;;;9.38;4.55;;;4.70;99.90;;;;;;6224658;22;20394;-91
2022/04/04 06:30:20;;;;;;;10.43;4.15;;;4.70;99.90;;;;;;6273770;22;20016;-87
2022/04/04 06:32:46;;;;;;;9.15;4.15;;;4.60;99.90;;;;;;6250069;22;20074;-87
2022/04/04 06:35:13;;;;;;;10.68;3.72;;;4.60;99.90;;;;;;6224411;22;20020;-88
2022/04/04 06:37:39;;;;;;;9.43;4.10;;;4.60;99.90;;;;;;6249626;22;20382;-89
2022/04/04 06:40:05;;;;;;;7.15;4.32;;;4.50;99.90;;;;;;6223943;22;20101;-89
2022/04/04 06:42:51;;;;;;;9.98;4.70;;;4.60;99.90;;;;;;6223964;22;20020;-89
2022/04/04 06:45:17;;;;;;;9.68;4.10;;;4.60;99.90;;;;;;6220423;22;20019;-89
2022/04/04 06:47:43;;;;;;;8.65;5.15;;;4.60;99.90;;;;;;6224442;22;20027;-91
2022/04/04 06:50:09;;;;;;;8.52;4.45;;;4.60;99.90;;;;;;6224359;22;20023;-89
2022/04/04 06:52:37;;;;;;;9.75;4.68;;;4.60;99.90;;;;;;6249704;22;20506;-89
2022/04/04 06:55:03;;;;;;;7.15;4.22;;;4.60;99.90;;;;;;6277856;22;20072;-90
2022/04/04 06:57:29;;;;;;;10.70;5.10;;;4.60;99.90;;;;;;6251848;22;20514;-89
2022/04/04 06:59:55;;;;;;;11.37;4.60;;;4.60;99.90;;;;;;6251458;22;20098;-88
2022/04/04 07:02:20;;;;;;;11.00;5.40;;;4.70;99.90;;;;;;6226216;22;20051;-89
2022/04/04 07:04:46;;;;;;;11.63;5.23;;;4.70;99.90;;;;;;6226340;22;20425;-89
2022/04/04 07:07:12;;;;;;;10.10;5.13;;;4.70;99.90;;;;;;6226157;22;20023;-89
2022/04/04 07:09:38;;;;;;;9.18;5.47;;;4.70;99.90;;;;;;6251490;22;20027;-91
2022/04/04 07:12:05;;;;;;;10.17;5.17;;;4.70;99.90;;;;;;6226340;22;20011;-90
2022/04/04 07:14:31;;;;;;;12.57;5.85;;;4.70;99.90;;;;;;6251484;22;20012;-90
2022/04/04 07:16:57;;;;;;;10.27;5.65;;;4.80;99.90;;;;;;6226470;22;20027;-89
2022/04/04 07:19:23;;;;;;;11.90;5.60;;;4.80;99.90;;;;;;6251716;22;20340;-91
2022/04/04 07:21:53;;;;;;;12.88;6.72;;;4.80;99.90;;;;;;6225924;22;20015;-89
2022/04/04 07:24:22;;;;;;;13.00;7.10;;;4.80;99.90;;;;;;6226237;22;20020;-90
2022/04/04 07:26:48;;;;;;;13.93;8.32;;;4.90;99.90;;;;;;6251308;22;20016;-88
2022/04/04 07:29:17;;;;;;;12.52;7.75;;;4.90;99.90;;;;;;6251580;22;20027;-88
2022/04/04 07:31:43;;;;;;;12.68;8.40;;;4.90;99.90;;;;;;6225940;22;20012;-88
2022/04/04 07:34:12;;;;;;;13.65;8.45;;;5.00;99.90;;;;;;6225960;22;20026;-91
2022/04/04 07:36:40;;;;;;;15.43;9.30;;;5.00;99.90;;;;;;6225950;22;20027;-89
2022/04/04 07:39:07;;;;;;;14.20;9.05;;;5.00;99.90;;;;;;6225790;22;20054;-91
2022/04/04 07:41:33;;;;;;;14.13;8.30;;;5.00;99.90;;;;;;6225918;22;20015;-90
2022/04/04 07:43:59;;;;;;;14.82;9.68;;;5.10;99.90;;;;;;6225840;22;20047;-91
2022/04/04 07:46:26;;;;;;;15.37;9.80;;;5.10;99.90;;;;;;6225872;22;20464;-90
2022/04/04 07:48:55;;;;;;;18.63;10.70;;;5.20;99.90;;;;;;6226150;22;20027;-90
2022/04/04 07:51:21;;;;;;;15.45;9.73;;;5.20;99.90;;;;;;6251109;22;20012;-89
2022/04/04 07:53:47;;;;;;;16.83;9.75;;;5.20;99.90;;;;;;6225799;22;20016;-88
2022/04/04 07:56:13;;;;;;;13.82;9.18;;;5.30;99.90;;;;;;6225523;22;20015;-90
2022/04/04 07:58:39;;;;;;;15.97;10.33;;;5.30;99.90;;;;;;6225411;22;20035;-89
2022/04/04 08:01:05;;;;;;;16.63;10.70;;;5.30;99.90;;;;;;6225451;22;20026;-88
2022/04/04 08:03:30;;;;;;;18.37;10.53;;;5.40;99.90;;;;;;6225486;22;20015;-88
2022/04/04 08:05:56;;;;;;;14.82;8.57;;;5.40;99.90;;;;;;6225295;22;20495;-88
2022/04/04 08:08:22;;;;;;;14.77;9.17;;;5.40;99.90;;;;;;6225378;22;20016;-88
2022/04/04 08:10:48;;;;;;;14.83;8.73;;;5.40;99.90;;;;;;6250783;22;20513;-89
2022/04/04 08:13:14;;;;;;;15.07;8.77;;;5.40;99.90;;;;;;6224851;22;20015;-89
2022/04/04 08:15:39;;;;;;;11.57;7.80;;;5.50;99.90;;;;;;6250600;22;20012;-90
2022/04/04 08:18:06;;;;;;;13.47;8.23;;;5.50;99.90;;;;;;6250606;22;20012;-91
2022/04/04 08:20:32;;;;;;;13.68;8.50;;;5.50;99.90;;;;;;6225487;22;20054;-88
2022/04/04 08:23:01;;;;;;;14.45;7.68;;;5.60;99.90;;;;;;6226162;22;20612;-89
2022/04/04 08:25:26;;;;;;;14.77;7.90;;;5.60;99.90;;;;;;6250782;22;20015;-89
2022/04/04 08:27:52;;;;;;;13.30;7.57;;;5.60;99.90;;;;;;6224960;22;20020;-90
2022/04/04 08:30:18;;;;;;;13.70;7.70;;;5.70;99.90;;;;;;6250583;22;20452;-89
2022/04/04 08:32:45;;;;;;;12.57;6.45;;;5.70;99.90;;;;;;6275781;22;20015;-91
2022/04/04 08:35:13;;;;;;;11.20;6.70;;;5.70;99.90;;;;;;6250754;22;20019;-88
2022/04/04 08:37:41;;;;;;;12.68;7.05;;;5.70;99.90;;;;;;6225483;22;20094;-88
2022/04/04 08:40:09;;;;;;;12.27;6.50;;;5.70;99.90;;;;;;6225619;22;20019;-88
2022/04/04 08:42:36;;;;;;;11.15;5.97;;;5.80;99.90;;;;;;6225374;22;20448;-91
2022/04/04 08:45:03;;;;;;;8.25;4.65;;;5.70;99.90;;;;;;6250575;22;20360;-89
2022/04/04 08:47:31;;;;;;;9.68;5.15;;;5.80;99.90;;;;;;6225288;22;20086;-91
2022/04/04 08:49:57;;;;;;;8.52;4.40;;;5.80;99.90;;;;;;6277550;22;20399;-89
2022/04/04 08:52:24;;;;;;;9.15;4.25;;;5.90;99.90;;;;;;6225532;22;20498;-92
2022/04/04 08:54:50;;;;;;;9.25;3.80;;;5.90;99.90;;;;;;6277304;22;20058;-90
2022/04/04 08:57:31;;;;;;;7.47;3.80;;;5.90;99.90;;;;;;6251488;22;20094;-91
2022/04/04 09:00:00;;;;;;;8.45;4.10;;;5.90;99.90;;;;;;6251427;22;20019;-91
2022/04/04 09:02:26;;;;;;;7.03;4.13;;;6.00;99.90;;;;;;6225087;22;20016;-90
2022/04/04 09:04:52;;;;;;;7.10;3.37;;;6.00;99.90;;;;;;6224645;22;20341;-89
2022/04/04 09:07:19;;;;;;;6.55;3.30;;;6.00;99.90;;;;;;6224985;22;20022;-88
2022/04/04 09:09:47;;;;;;;7.55;3.30;;;6.00;99.90;;;;;;6225339;22;20069;-90
2022/04/04 09:12:15;;;;;;;6.60;3.38;;;6.00;99.90;;;;;;6225079;22;20018;-91
2022/04/04 09:14:45;;;;;;;7.30;3.60;;;6.00;99.90;;;;;;6225059;22;20016;-89
2022/04/04 09:17:12;;;;;;;7.45;2.88;;;6.10;99.90;;;;;;6224825;22;20342;-89
2022/04/04 09:19:39;;;;;;;5.13;2.90;;;6.10;99.90;;;;;;6225077;22;20074;-88
2022/04/04 09:22:18;;;;;;;7.20;2.90;;;6.10;99.90;;;;;;6224869;22;20047;-89
2022/04/04 09:24:57;;;;;;;8.30;3.45;;;6.10;99.90;;;;;;6250067;22;20575;-91
2022/04/04 09:27:32;;;;;;;15.23;7.72;;;6.10;99.90;;;;;;6249892;22;20095;-90
2022/04/04 09:30:00;;;;;;;8.95;4.75;;;6.20;99.90;;;;;;6250383;22;20027;-90
2022/04/04 09:32:38;;;;;;;6.50;3.42;;;6.10;99.90;;;;;;6277356;22;20472;-89
2022/04/04 09:35:10;;;;;;;6.60;3.40;;;6.20;99.90;;;;;;6224903;22;20433;-90
2022/04/04 09:37:37;;;;;;;6.82;4.53;;;6.20;99.90;;;;;;6276090;22;20069;-89
2022/04/04 09:40:14;;;;;;;7.03;3.00;;;6.20;99.90;;;;;;6224824;22;20012;-89
2022/04/04 09:42:40;;;;;;;7.45;3.08;;;6.30;99.90;;;;;;6224908;22;20047;-89
2022/04/04 09:45:09;;;;;;;6.57;2.83;;;6.30;99.90;;;;;;6249193;22;20054;-88
2022/04/04 09:47:53;;;;;;;9.88;5.28;;;6.30;99.90;;;;;;6250030;22;20022;-89
2022/04/04 09:50:35;;;;;;;8.68;3.53;;;6.40;99.90;;;;;;6225255;22;20027;-89
2022/04/04 09:53:03;;;;;;;6.65;3.40;;;6.40;99.90;;;;;;6225021;22;20022;-91
2022/04/04 09:55:34;;;;;;;8.30;3.53;;;6.50;99.90;;;;;;6225008;22;20016;-92
2022/04/04 09:58:05;;;;;;;6.20;2.95;;;6.40;99.90;;;;;;6224902;22;20022;-90
2022/04/04 10:00:31;;;;;;;7.72;3.55;;;6.40;99.90;;;;;;6250476;22;20051;-90
2022/04/04 10:02:58;;;;;;;6.80;3.00;;;6.50;99.90;;;;;;6224810;22;20011;-88
2022/04/04 10:05:26;;;;;;;7.72;3.17;;;6.50;99.90;;;;;;6250119;22;20399;-91
2022/04/04 10:07:55;;;;;;;4.65;2.20;;;6.50;99.90;;;;;;6225052;22;20160;-89
2022/04/04 10:10:26;;;;;;;5.43;3.10;;;6.50;99.90;;;;;;6224633;22;20023;-88
2022/04/04 10:12:52;;;;;;;7.05;3.00;;;6.50;99.90;;;;;;6250246;22;20026;-92
2022/04/04 10:15:20;;;;;;;8.73;2.92;;;6.50;99.90;;;;;;6250001;22;20012;-93
2022/04/04 10:17:45;;;;;;;7.25;3.13;;;6.50;99.90;;;;;;6277018;22;20396;-91
2022/04/04 10:20:12;;;;;;;5.40;2.50;;;6.60;99.90;;;;;;6249930;22;20021;-90
2022/04/04 10:22:38;;;;;;;9.73;2.53;;;6.60;99.90;;;;;;6249959;22;20456;-91
2022/04/04 10:25:07;;;;;;;7.13;2.57;;;6.60;99.90;;;;;;6250009;22;20023;-90
2022/04/04 10:27:35;;;;;;;6.15;2.47;;;6.60;99.90;;;;;;6249699;22;20070;-93
2022/04/04 10:30:06;;;;;;;6.60;2.85;;;6.60;99.90;;;;;;6250451;22;20027;-90
2022/04/04 10:32:33;;;;;;;5.75;2.28;;;6.60;99.90;;;;;;6224492;22;20018;-92
2022/04/04 10:35:10;;;;;;;6.38;2.17;;;6.70;99.90;;;;;;6226503;22;20007;-91
2022/04/04 10:37:44;;;;;;;6.07;2.40;;;6.70;99.90;;;;;;6252059;22;20090;-90
2022/04/04 10:40:22;;;;;;;5.10;2.20;;;6.70;99.90;;;;;;6227087;22;20012;-91
2022/04/04 10:43:07;;;;;;;7.90;2.30;;;6.70;99.90;;;;;;6252056;22;20027;-92
2022/04/04 10:46:04;;;;;;;7.13;2.60;;;6.70;99.90;;;;;;6226406;22;20011;-91
2022/04/04 10:48:35;;;;;;;4.93;2.33;;;6.70;99.90;;;;;;6222166;22;20046;-91
2022/04/04 10:51:18;;;;;;;5.72;2.35;;;6.80;99.90;;;;;;6277935;22;20023;-90
2022/04/04 10:53:49;;;;;;;6.40;2.10;;;6.80;99.90;;;;;;6250841;22;20231;-91
2022/04/04 10:56:21;;;;;;;6.10;2.40;;;6.80;99.90;;;;;;6224355;22;20016;-89
2022/04/04 10:58:47;;;;;;;3.95;1.75;;;6.90;99.90;;;;;;6250849;22;20019;-92
2022/04/04 11:01:16;;;;;;;6.05;2.38;;;6.80;99.90;;;;;;6224201;22;20405;-90
2022/04/04 11:03:51;;;;;;;5.20;2.15;;;6.90;99.90;;;;;;6275826;22;20026;-90
2022/04/04 11:09:18;;;;;;;4.93;1.70;;;6.90;99.90;;;;;;6251650;22;20016;-94
2022/04/04 11:11:50;;;;;;;5.88;2.05;;;7.00;99.90;;;;;;6226280;22;20015;-92
2022/04/04 11:14:18;;;;;;;4.78;1.52;;;6.90;99.90;;;;;;6251692;22;20345;-90
2022/04/04 11:17:06;;;;;;;6.13;2.28;;;7.00;99.90;;;;;;6226756;22;20019;-94
2022/04/04 11:19:48;;;;;;;4.40;1.55;;;7.00;99.90;;;;;;6226500;22;20023;-92
2022/04/04 11:22:25;;;;;;;4.85;1.40;;;7.00;99.90;;;;;;6226356;22;20460;-88
2022/04/04 11:24:54;;;;;;;2.95;1.23;;;7.00;99.90;;;;;;6226298;22;20027;-90
2022/04/04 11:27:21;;;;;;;3.20;1.25;;;7.00;99.90;;;;;;6251715;22;20020;-92
2022/04/04 11:29:47;;;;;;;3.15;1.30;;;7.10;99.90;;;;;;6251271;22;20030;-94
2022/04/04 11:32:16;;;;;;;4.97;1.10;;;7.10;99.90;;;;;;6278587;22;20019;-94
2022/04/04 11:34:43;;;;;;;3.00;1.10;;;7.10;99.90;;;;;;6226095;22;20083;-91
2022/04/04 11:37:24;;;;;;;2.70;1.05;;;7.10;99.90;;;;;;6251800;22;20437;-92
2022/04/04 11:39:53;;;;;;;3.65;1.58;;;7.20;99.90;;;;;;6226177;22;20026;-89
2022/04/04 11:42:22;;;;;;;3.65;0.95;;;7.20;99.90;;;;;;6226277;22;20445;-91
2022/04/04 11:45:08;;;;;;;4.25;1.30;;;7.30;99.90;;;;;;6226308;22;20015;-92
2022/04/04 11:47:41;;;;;;;7.18;1.52;;;7.30;99.90;;;;;;6227050;22;20503;-93
2022/04/04 11:50:11;;;;;;;9.95;8.15;;;7.30;99.90;;;;;;6226059;22;20078;-92
2022/04/04 11:52:57;;;;;;;3.88;1.00;;;7.40;99.90;;;;;;6226284;22;20442;-92
2022/04/04 11:55:25;;;;;;;2.45;0.80;;;7.40;99.90;;;;;;6225973;22;20026;-90
2022/04/04 11:57:57;;;;;;;3.60;0.90;;;7.40;99.90;;;;;;6276427;22;20051;-92
2022/04/04 12:00:25;;;;;;;2.13;0.60;;;7.40;99.90;;;;;;6226148;22;20024;-92
2022/04/04 12:02:51;;;;;;;3.30;1.05;;;7.40;99.90;;;;;;6225950;22;20512;-93
2022/04/04 12:05:21;;;;;;;3.80;0.97;;;7.40;99.90;;;;;;6226001;22;20047;-90
2022/04/04 12:07:50;;;;;;;3.30;1.17;;;7.50;99.90;;;;;;6226703;22;20158;-94
2022/04/04 12:10:35;;;;;;;1.92;0.82;;;7.50;99.90;;;;;;6226008;22;20020;-92
2022/04/04 12:13:21;;;;;;;2.35;1.02;;;7.50;99.90;;;;;;6226164;22;20318;-89
2022/04/04 12:15:53;;;;;;;3.10;1.30;;;7.60;99.90;;;;;;6225779;22;20117;-92
2022/04/04 12:18:27;;;;;;;5.65;1.40;;;7.60;99.90;;;;;;6225815;22;20462;-95
2022/04/04 12:20:57;;;;;;;2.95;1.30;;;7.60;99.90;;;;;;6225478;22;20098;-90
2022/04/04 12:26:11;;;;;;;2.40;0.90;;;7.70;99.90;;;;;;6250897;22;20019;-93
2022/04/04 12:28:50;;;;;;;2.97;1.05;;;7.70;99.90;;;;;;6251069;22;20016;-91
2022/04/04 12:31:20;;;;;;;2.85;1.10;;;7.70;99.90;;;;;;6225255;22;20020;-92
2022/04/04 12:33:56;;;;;;;2.50;0.90;;;7.70;99.90;;;;;;6277835;22;20035;-89
2022/04/04 12:36:28;;;;;;;2.83;0.93;;;7.80;99.90;;;;;;6225425;22;20027;-90
2022/04/04 12:38:58;;;;;;;3.47;1.92;;;7.80;99.90;;;;;;6225810;22;20034;-92
2022/04/04 12:41:25;;;;;;;2.95;1.17;;;7.80;99.90;;;;;;6225476;22;20110;-90
2022/04/04 12:44:02;;;;;;;3.97;1.40;;;7.90;99.90;;;;;;6225962;22;20023;-91
2022/04/04 12:46:31;;;;;;;3.20;1.38;;;7.90;99.90;;;;;;6225588;22;20090;-92
2022/04/04 12:49:23;;;;;;;3.75;1.27;;;8.00;99.90;;;;;;6225634;22;20445;-92
2022/04/04 12:51:58;;;;;;;3.00;1.20;;;8.00;99.90;;;;;;6225527;22;20019;-93
2022/04/04 13:07:24;;;;;;;4.32;1.80;;;8.10;99.90;;;;;;6252451;22;20015;-93
2022/04/04 13:12:46;;;;;;;3.85;1.85;;;8.20;99.90;;;;;;6251809;22;20015;-94
2022/04/04 13:15:12;;;;;;;4.43;2.03;;;8.30;99.90;;;;;;6250911;22;20098;-96
2022/04/04 13:17:39;;;;;;;4.90;2.03;;;8.30;99.90;;;;;;6225336;22;20020;-96
2022/04/04 13:20:12;;;;;;;5.43;2.65;;;8.40;99.90;;;;;;6250214;22;20011;-95
2022/04/04 13:22:39;;;;;;;4.65;2.45;;;8.40;99.90;;;;;;6250915;22;20098;-94
2022/04/04 13:25:05;;;;;;;4.75;2.70;;;8.40;99.90;;;;;;6224039;22;20008;-92
2022/04/04 13:27:31;;;;;;;5.80;2.72;;;8.50;99.90;;;;;;6250664;22;20028;-94
2022/04/04 13:29:57;;;;;;;6.17;2.63;;;8.60;99.90;;;;;;6225453;22;20031;-93
2022/04/04 13:32:22;;;;;;;6.60;3.27;;;8.60;99.90;;;;;;6224848;22;20027;-96
2022/04/04 13:34:51;;;;;;;6.30;3.03;;;8.60;99.90;;;;;;6276455;22;20062;-95
2022/04/04 13:37:18;;;;;;;7.35;3.33;;;8.70;99.90;;;;;;6224927;22;20074;-95
2022/04/04 13:39:44;;;;;;;7.28;3.00;;;8.70;99.90;;;;;;6250596;22;20012;-94
2022/04/04 13:42:10;;;;;;;7.47;3.40;;;8.70;99.90;;;;;;6275834;22;20016;-93
2022/04/04 13:44:38;;;;;;;8.05;3.35;;;8.70;99.90;;;;;;6225675;22;20012;-95
2022/04/04 13:47:04;;;;;;;7.57;3.83;;;8.80;99.90;;;;;;6251899;22;20015;-95
2022/04/04 13:49:30;;;;;;;14.23;5.60;;;8.80;99.90;;;;;;6227497;22;20018;-94
2022/04/04 13:51:56;;;;;;;10.40;4.40;;;8.80;99.90;;;;;;6229424;22;20020;-91
2022/04/04 13:54:22;;;;;;;7.67;3.80;;;8.90;99.90;;;;;;6225754;22;20282;-92
2022/04/04 13:56:49;;;;;;;13.68;5.70;;;8.90;99.90;;;;;;6277927;22;20118;-92
2022/04/04 13:59:15;;;;;;;20.27;9.70;;;8.90;99.90;;;;;;6252834;22;20022;-94
2022/04/04 14:01:41;;;;;;;14.60;5.40;;;8.90;99.90;;;;;;6225383;22;20027;-93
2022/04/04 14:04:06;;;;;;;20.83;7.68;;;8.90;99.90;;;;;;6226797;22;20015;-94
2022/04/04 14:06:33;;;;;;;19.13;8.97;;;8.90;99.90;;;;;;6227724;22;20114;-96
2022/04/04 14:08:59;;;;;;;14.32;7.13;;;8.90;99.90;;;;;;6227307;22;20025;-91
2022/04/04 14:11:29;;;;;;;16.08;8.20;;;9.00;99.90;;;;;;6227147;22;20019;-92
2022/04/04 14:14:52;;;;;;;20.15;9.23;;;8.90;99.90;;;;;;6252136;22;20015;-94
2022/04/04 14:17:35;;;;;;;16.35;7.20;;;9.00;99.90;;;;;;6131629;23;20022;-94
2022/04/04 14:20:08;;;;;;;15.13;5.22;;;9.00;99.90;;;;;;6131163;23;20513;-93
2022/04/04 14:22:44;;;;;;;15.75;4.97;;;9.00;99.90;;;;;;6222908;22;20012;-95
2022/04/04 14:25:13;;;;;;;18.30;5.67;;;9.00;99.90;;;;;;6227327;22;20015;-94
2022/04/04 14:27:41;;;;;;;22.27;6.60;;;9.00;99.90;;;;;;6226362;22;20246;-95